METAR AND TAF INFORMATION
METAR FOR LSZB
ADDS - METARS form results

(1122 UTC 19 January 2019)
Data provider http://aviationweather.gov/metar/data/
 
METAR text: LSZB 191120Z VRB01KT 9999 SCT021 00/M05 Q1014 NOSIG
Conditions at: LSZB (BERN/BELP , CH) observed 1120 UTC 19 January 2019
Temperature: 0.0°C (32°F)
Dewpoint: -5.0°C (23°F) [RH = 69%]
Pressure (altimeter): 29.94 inches Hg (1014.0 mb)
Winds: variable direction winds at 1 MPH (1 knots; 0.5 m/s)
Visibility: 6 or more miles (10+ km)
Ceiling: at least 12,000 feet AGL
Clouds: scattered clouds at 2100 feet AGL
Weather: no significant weather observed at this time

METAR text: LSZB 191050Z VRB02KT 9999 BKN022 M00/M05 Q1015 NOSIG
Conditions at: LSZB (BERN/BELP , CH) observed 1050 UTC 19 January 2019
Temperature: 0.0°C (32°F)
Dewpoint: -5.0°C (23°F) [RH = 69%]
Pressure (altimeter): 29.97 inches Hg (1015.0 mb)
Winds: variable direction winds at 2 MPH (2 knots; 1.0 m/s)
Visibility: 6 or more miles (10+ km)
Ceiling: 2200 feet AGL
Clouds: broken clouds at 2200 feet AGL
Weather: no significant weather observed at this time

Forecast for: LSZB (BERN/BELP , CH)
Text: TAF LSZB 190825Z 1909/1918 VRB03KT 9999 BKN025
Forecast period: 0900 to 1800 UTC 19 January 2019
Forecast type: FROM: standard forecast or significant change
Winds: variable direction winds at 3 MPH (3 knots; 1.5 m/s)
Visibility: 6 or more miles 10+ km)
Ceiling: 2500 feet AGL
Clouds: broken clouds at 2500 feet AGL
Weather: no significant weather forecast for this period
Text: PROB40 1910/1918 CAVOK
Forecast period: 1000 to 1800 UTC 19 January 2019
Forecast type: PROBABLE: 40 percent likelihood of the following during this time
Visibility: 6 or more miles 10+ km)
Ceiling: unknown
Clouds: missing
Weather: NSW  (no significant weather)

 AIRPORT MAP

 RUNWAY INFORMATION
Runway 14 Runway length 4954 ft Runway width 98 ft
Runway elevation 1668 ft Runway displaced threshold 656 ft Runway heading 140
Runway 32 Runway length 4954 ft Runway width 98 ft
Runway elevation 1674 ft Runway displaced threshold 360 ft Runway heading 320
Runway 14L Runway length 2133 ft Runway width 98 ft
Runway elevation 0 ft Runway displaced threshold 0 ft Runway heading 140
Runway 32R Runway length 2133 ft Runway width 98 ft
Runway elevation 0 ft Runway displaced threshold 0 ft Runway heading 320
Runway 14R Runway length 2125 ft Runway width 98 ft
Runway elevation 0 ft Runway displaced threshold 0 ft Runway heading 140
Runway 32L Runway length 2125 ft Runway width 98 ft
Runway elevation 0 ft Runway displaced threshold 0 ft Runway heading 320

 AIRPORT FREQUENCIES
Type A/D Name APP/DEP Frequency 127.325 MHZ
Type ATIS Name ATIS Frequency 125.125 MHZ
Type MISC Name GLIDER Frequency 123.4 MHZ
Type OPS Name ALPAR Frequency 135.75 MHZ
Type TWR Name TWR Frequency 121.025 MHZ

 AIRPORT NEAR NAVIGATION AIDS
Type NDB Name Bern Frequency 335 KHZ
Type NDB Name Muri Frequency 312 KHZ
Type NDB Name Schupberg Frequency 357 KHZ



Powered by Virtual Airlines Manager [v2.6.2]